»·PEaware :: AAL576 KMSO-KLAS

AAL576 :: KMSO-KLAS

FLIGHT INFORMATION

Flight Status: Arrived
Operator:
American Airlines
More flights by this operator :: More flights under this callsign
Pilot: Anonymous 8274 (8274)
Aircraft: BOEING 737-300
(B733)
More flights by this aircraft type
Origin: KMSO Missoula Intl
United States
Destination: KLAS McCarran Intl
United States
More flights between these airports :: More routes between these airports
Route: +DIDLY5 LKT J52 DBS J9 FFU GGAPP SITEE4
File this flight plan on PilotEdge
Remarks:
Altitude:
(Current/Filed)
31,000ft
Speed:
(Current/Filed)
466kts
Departed: 11-Oct-20 02:45 PM
Arrived: 11-Oct-20 04:33 PM
Distance/Time
Traveled:
652nm/1:48
Distance/Time
To Go:
Arrived

Flight Plot

Page will automatically refresh every two minutes.

Flight plan parsing failed; only flown route is shown


Map Options




Map Legend


Flown Route
Filed Route
Departure Airport
Arrival Airport
Navaid (VOR, NDB)
Fix

Horizontal Profiles

Position Reports

Time Latitude Longitude Heading Altitude Ground
Speed
11-Oct-20 13:44 46.918912 -114.085086 109 3209ft 0kts
11-Oct-20 13:45 46.918912 -114.085086 109 3209ft 0kts
11-Oct-20 13:46 46.918912 -114.085086 109 3209ft 0kts
11-Oct-20 13:47 46.918912 -114.085086 109 3209ft 0kts
11-Oct-20 13:48 46.918912 -114.085086 109 3209ft 0kts
11-Oct-20 13:49 46.918912 -114.085086 109 3209ft 0kts
11-Oct-20 13:50 46.918912 -114.085086 109 3209ft 0kts
11-Oct-20 13:51 46.918912 -114.085086 109 3209ft 0kts
11-Oct-20 13:52 46.918912 -114.085086 109 3209ft 0kts
11-Oct-20 13:53 46.918912 -114.085086 109 3209ft 0kts
11-Oct-20 13:54 46.918912 -114.085086 109 3209ft 0kts
11-Oct-20 13:55 46.918912 -114.085086 109 3209ft 0kts
11-Oct-20 13:56 46.918912 -114.085086 109 3209ft 0kts
11-Oct-20 13:57 46.918912 -114.085086 109 3209ft 0kts
11-Oct-20 13:58 46.918912 -114.085086 109 3209ft 0kts
11-Oct-20 13:59 46.918912 -114.085086 109 3209ft 0kts
11-Oct-20 14:00 46.918912 -114.085086 109 3209ft 0kts
11-Oct-20 14:01 46.918912 -114.085086 109 3209ft 0kts
11-Oct-20 14:02 46.918912 -114.085086 109 3209ft 0kts
11-Oct-20 14:03 46.918912 -114.085086 109 3209ft 0kts
11-Oct-20 14:04 46.918912 -114.085086 109 3209ft 0kts
11-Oct-20 14:05 46.918912 -114.085086 109 3209ft 0kts
11-Oct-20 14:06 46.918912 -114.085086 109 3209ft 0kts
11-Oct-20 14:07 46.918912 -114.085086 109 3209ft 0kts
11-Oct-20 14:08 46.918912 -114.085086 109 3209ft 0kts
11-Oct-20 14:09 46.918912 -114.085086 109 3209ft 0kts
11-Oct-20 14:10 46.918912 -114.085086 109 3209ft 0kts
11-Oct-20 14:11 46.918912 -114.085086 109 3209ft 0kts
11-Oct-20 14:12 46.918912 -114.085086 109 3209ft 0kts
11-Oct-20 14:13 46.918912 -114.085086 109 3209ft 0kts
11-Oct-20 14:14 46.918912 -114.085086 109 3209ft 0kts
11-Oct-20 14:15 46.918912 -114.085086 109 3209ft 0kts
11-Oct-20 14:16 46.918912 -114.085086 109 3209ft 0kts
11-Oct-20 14:17 46.918912 -114.085086 109 3209ft 0kts
11-Oct-20 14:18 46.918912 -114.085086 109 3209ft 0kts
11-Oct-20 14:19 46.918912 -114.085086 109 3209ft 0kts
11-Oct-20 14:20 46.918912 -114.085086 109 3209ft 0kts
11-Oct-20 14:21 46.918912 -114.085086 109 3209ft 0kts
11-Oct-20 14:22 46.918912 -114.085086 109 3209ft 0kts
11-Oct-20 14:23 46.918912 -114.085086 109 3209ft 0kts
11-Oct-20 14:24 46.918912 -114.085086 109 3209ft 0kts
11-Oct-20 14:25 46.918917 -114.085106 109 3209ft 1kts
11-Oct-20 14:26 46.919200 -114.085828 173 3208ft 2kts
11-Oct-20 14:27 46.919351 -114.085787 198 3209ft 0kts
11-Oct-20 14:28 46.919350 -114.085787 198 3209ft 0kts
11-Oct-20 14:29 46.919350 -114.085787 198 3209ft 0kts
11-Oct-20 14:30 46.919350 -114.085787 198 3209ft 0kts
11-Oct-20 14:31 46.918576 -114.086074 188 3208ft 7kts
11-Oct-20 14:32 46.916365 -114.085735 179 3206ft 11kts
11-Oct-20 14:33 46.913271 -114.083129 131 3206ft 16kts
11-Oct-20 14:34 46.909547 -114.077222 182 3203ft 19kts
11-Oct-20 14:35 46.908932 -114.077220 177 3202ft 0kts
11-Oct-20 14:36 46.908932 -114.077220 177 3202ft 0kts
11-Oct-20 14:37 46.908635 -114.077226 189 3202ft 5kts
11-Oct-20 14:38 46.908356 -114.078351 310 3202ft 6kts
11-Oct-20 14:39 46.908425 -114.078468 310 3202ft 0kts
11-Oct-20 14:40 46.908425 -114.078468 310 3202ft 0kts
11-Oct-20 14:41 46.908463 -114.078532 310 3202ft 0kts
11-Oct-20 14:42 46.908546 -114.078674 310 3202ft 0kts
11-Oct-20 14:43 46.908662 -114.078872 310 3203ft 0kts
11-Oct-20 14:44 46.914695 -114.089193 310 3202ft 135kts
11-Oct-20 14:45 46.943249 -114.137498 309 4986ft 186kts
11-Oct-20 14:46 46.985728 -114.205997 310 7193ft 241kts
11-Oct-20 14:47 47.001676 -114.292135 231 9488ft 268kts
11-Oct-20 14:48 46.929449 -114.284882 131 12006ft 331kts
11-Oct-20 14:49 46.918895 -114.149595 82 14478ft 350kts
11-Oct-20 14:50 46.909387 -114.003771 126 15859ft 403kts
11-Oct-20 14:51 46.809173 -113.947834 199 17459ft 393kts
11-Oct-20 14:52 46.700279 -113.983943 204 19483ft 409kts
11-Oct-20 14:53 46.592756 -114.042972 211 21235ft 424kts
11-Oct-20 14:54 46.486424 -114.113179 238 22827ft 403kts
11-Oct-20 14:55 46.370494 -114.163768 179 23086ft 486kts
11-Oct-20 14:56 46.237208 -114.142765 187 23091ft 480kts
11-Oct-20 14:57 46.103446 -114.136420 187 23117ft 480kts
11-Oct-20 14:58 45.969329 -114.129820 187 23127ft 481kts
11-Oct-20 14:59 45.833736 -114.123188 187 24214ft 496kts
11-Oct-20 15:00 45.694032 -114.116332 187 25868ft 506kts
11-Oct-20 15:01 45.551633 -114.109425 188 27314ft 518kts
11-Oct-20 15:02 45.406182 -114.102348 189 28961ft 521kts
11-Oct-20 15:03 45.261122 -114.095404 190 30506ft 523kts
11-Oct-20 15:04 45.114749 -114.088379 190 31164ft 521kts
11-Oct-20 15:05 44.972092 -114.043740 142 31158ft 568kts
11-Oct-20 15:06 44.905633 -113.848138 113 31147ft 566kts
11-Oct-20 15:07 44.817856 -113.664187 122 31138ft 570kts
11-Oct-20 15:09 44.728069 -113.480412 122 31139ft 570kts
11-Oct-20 15:10 44.639455 -113.300156 123 31113ft 570kts
11-Oct-20 15:11 44.549006 -113.117284 123 31140ft 570kts
11-Oct-20 15:12 44.458441 -112.935488 123 31139ft 570kts
11-Oct-20 15:13 44.367337 -112.753755 123 31139ft 570kts
11-Oct-20 15:14 44.276001 -112.572696 123 31139ft 570kts
11-Oct-20 15:15 44.184524 -112.392462 123 31139ft 570kts
11-Oct-20 15:16 44.092260 -112.215361 136 31128ft 570kts
11-Oct-20 15:17 43.958149 -112.169067 219 31139ft 461kts
11-Oct-20 15:18 43.822711 -112.190188 188 31132ft 520kts
11-Oct-20 15:19 43.678565 -112.179044 189 31139ft 519kts
11-Oct-20 15:20 43.534118 -112.168536 189 31138ft 519kts
11-Oct-20 15:21 43.390267 -112.158029 189 31138ft 519kts
11-Oct-20 15:22 43.246203 -112.147624 189 31138ft 519kts
11-Oct-20 15:23 43.102206 -112.137291 189 31139ft 519kts
11-Oct-20 15:24 42.958291 -112.127001 189 31139ft 519kts
11-Oct-20 15:25 42.814139 -112.116656 189 31136ft 519kts
11-Oct-20 15:25 42.693952 -112.108134 189 31140ft 519kts
11-Oct-20 15:27 42.526182 -112.096277 189 31138ft 519kts
11-Oct-20 15:27 42.406365 -112.087846 189 31138ft 519kts
11-Oct-20 15:29 42.237821 -112.076055 189 31138ft 519kts
11-Oct-20 15:29 42.117532 -112.067674 189 31138ft 519kts
11-Oct-20 15:30 41.972894 -112.057636 189 31141ft 519kts
11-Oct-20 15:31 41.829756 -112.047686 189 31143ft 518kts
11-Oct-20 15:32 41.684472 -112.037737 188 31153ft 527kts
11-Oct-20 15:33 41.536680 -112.027561 188 31202ft 524kts
11-Oct-20 15:34 41.389583 -112.017549 188 31245ft 524kts
11-Oct-20 15:35 41.243164 -112.007627 187 31243ft 522kts
11-Oct-20 15:36 41.096928 -111.997740 187 31243ft 521kts
11-Oct-20 15:37 40.951668 -111.987990 187 31249ft 519kts
11-Oct-20 15:38 40.808615 -111.978644 187 31238ft 521kts
11-Oct-20 15:39 40.663245 -111.968444 186 31246ft 522kts
11-Oct-20 15:40 40.518105 -111.957896 186 31246ft 520kts
11-Oct-20 15:41 40.372275 -111.947417 186 31248ft 519kts
11-Oct-20 15:42 40.227944 -111.942993 194 31255ft 508kts
11-Oct-20 15:43 40.085776 -111.954494 193 31264ft 509kts
11-Oct-20 15:44 39.943946 -111.964806 193 31267ft 509kts
11-Oct-20 15:45 39.803544 -111.974998 193 31269ft 508kts
11-Oct-20 15:46 39.661937 -111.985228 193 31267ft 508kts
11-Oct-20 15:47 39.521204 -111.995369 193 31267ft 507kts
11-Oct-20 15:48 39.379728 -112.005528 192 31279ft 507kts
11-Oct-20 15:49 39.239656 -112.015543 192 31275ft 505kts
11-Oct-20 15:50 39.099390 -112.025546 191 31277ft 504kts
11-Oct-20 15:51 38.959340 -112.035476 191 31270ft 502kts
11-Oct-20 15:52 38.820413 -112.045242 191 31263ft 501kts
11-Oct-20 15:53 38.681525 -112.055007 190 31264ft 499kts
11-Oct-20 15:54 38.543156 -112.064706 190 31263ft 498kts
11-Oct-20 15:55 38.405270 -112.074332 190 31266ft 496kts
11-Oct-20 15:56 38.267503 -112.083927 189 31290ft 497kts
11-Oct-20 15:57 38.129367 -112.093497 189 31314ft 496kts
11-Oct-20 15:58 37.991914 -112.102991 189 31311ft 496kts
11-Oct-20 15:59 37.859526 -112.112075 189 31279ft 496kts
11-Oct-20 16:00 37.721319 -112.121515 189 31302ft 496kts
11-Oct-20 16:01 37.583535 -112.130923 189 31305ft 497kts
11-Oct-20 16:02 37.479355 -112.205913 261 31294ft 419kts
11-Oct-20 16:03 37.439720 -112.328842 249 31305ft 433kts
11-Oct-20 16:04 37.377657 -112.459725 248 31303ft 436kts
11-Oct-20 16:05 37.314677 -112.590507 248 31300ft 438kts
11-Oct-20 16:06 37.255796 -112.712430 247 31294ft 439kts
11-Oct-20 16:07 37.191729 -112.844508 247 31248ft 441kts
11-Oct-20 16:08 37.127401 -112.976653 247 31145ft 446kts
11-Oct-20 16:09 37.062594 -113.109038 247 31076ft 447kts
11-Oct-20 16:10 36.997322 -113.241963 247 31084ft 447kts
11-Oct-20 16:11 36.931916 -113.374383 247 29841ft 449kts
11-Oct-20 16:12 36.868100 -113.502563 245 26760ft 445kts
11-Oct-20 16:13 36.804623 -113.629851 246 24491ft 421kts
11-Oct-20 16:14 36.745285 -113.748855 245 22309ft 418kts
11-Oct-20 16:15 36.684978 -113.869045 244 20091ft 399kts
11-Oct-20 16:16 36.626783 -113.984699 243 17959ft 395kts
11-Oct-20 16:17 36.569621 -114.097362 242 16143ft 374kts
11-Oct-20 16:18 36.513726 -114.205884 242 14610ft 376kts
11-Oct-20 16:19 36.458261 -114.314345 242 13313ft 368kts
11-Oct-20 16:20 36.405324 -114.417173 242 12677ft 331kts
11-Oct-20 16:21 36.359191 -114.506700 242 12130ft 287kts
11-Oct-20 16:22 36.318932 -114.584932 243 11582ft 257kts
11-Oct-20 16:23 36.281413 -114.657802 241 11088ft 258kts
11-Oct-20 16:24 36.242779 -114.733217 241 9909ft 261kts
11-Oct-20 16:25 36.204563 -114.811989 242 8315ft 268kts
11-Oct-20 16:26 36.206332 -114.900709 281 6834ft 260kts
11-Oct-20 16:27 36.217681 -114.982854 281 6505ft 212kts
11-Oct-20 16:28 36.212534 -115.052489 236 5148ft 212kts
11-Oct-20 16:29 36.178728 -115.107326 220 3949ft 185kts
11-Oct-20 16:30 36.134958 -115.136263 203 3091ft 165kts
11-Oct-20 16:31 36.095003 -115.159121 203 2195ft 152kts
11-Oct-20 16:32 36.078932 -115.166985 150 2185ft 0kts
11-Oct-20 16:33 36.078932 -115.166985 150 2185ft 0kts
11-Oct-20 16:34 36.078148 -115.166037 114 2185ft 9kts
11-Oct-20 16:35 36.078035 -115.161998 90 2185ft 13kts
11-Oct-20 16:36 36.078040 -115.156831 90 2185ft 16kts

Navigation Log

Ident Type
Flight plan parsing failed, navigation log unavailable